sensor_id;sensor_type;location;lat;lon;timestamp;P1;durP1;ratioP1;P2;durP2;ratioP2
17852;SDS011;9052;53.494;14.376;2023-06-22T00:00:48;10.40;;;8.70;;
17852;SDS011;9052;53.494;14.376;2023-06-22T00:03:17;12.07;;;9.13;;
17852;SDS011;9052;53.494;14.376;2023-06-22T00:05:44;11.33;;;8.40;;
17852;SDS011;9052;53.494;14.376;2023-06-22T00:08:11;14.60;;;9.17;;
17852;SDS011;9052;53.494;14.376;2023-06-22T00:10:38;16.80;;;9.30;;
17852;SDS011;9052;53.494;14.376;2023-06-22T00:13:06;11.03;;;9.13;;
17852;SDS011;9052;53.494;14.376;2023-06-22T00:15:33;18.83;;;10.33;;
17852;SDS011;9052;53.494;14.376;2023-06-22T00:18:02;11.93;;;10.57;;
17852;SDS011;9052;53.494;14.376;2023-06-22T00:20:29;11.63;;;10.07;;
17852;SDS011;9052;53.494;14.376;2023-06-22T00:22:56;12.60;;;9.17;;
17852;SDS011;9052;53.494;14.376;2023-06-22T00:25:23;10.17;;;8.60;;
17852;SDS011;9052;53.494;14.376;2023-06-22T00:27:51;16.43;;;10.17;;
17852;SDS011;9052;53.494;14.376;2023-06-22T00:30:18;18.77;;;9.50;;
17852;SDS011;9052;53.494;14.376;2023-06-22T00:32:45;15.63;;;10.93;;
17852;SDS011;9052;53.494;14.376;2023-06-22T00:35:13;15.90;;;10.70;;
17852;SDS011;9052;53.494;14.376;2023-06-22T00:37:40;15.30;;;9.23;;
17852;SDS011;9052;53.494;14.376;2023-06-22T00:40:09;19.30;;;11.97;;
17852;SDS011;9052;53.494;14.376;2023-06-22T00:42:37;14.73;;;10.20;;
17852;SDS011;9052;53.494;14.376;2023-06-22T00:45:05;12.87;;;10.60;;
17852;SDS011;9052;53.494;14.376;2023-06-22T00:47:34;12.43;;;11.07;;
17852;SDS011;9052;53.494;14.376;2023-06-22T00:50:01;13.60;;;11.40;;
17852;SDS011;9052;53.494;14.376;2023-06-22T00:52:30;9.97;;;8.87;;
17852;SDS011;9052;53.494;14.376;2023-06-22T00:54:58;15.50;;;10.20;;
17852;SDS011;9052;53.494;14.376;2023-06-22T00:57:28;17.10;;;10.97;;
17852;SDS011;9052;53.494;14.376;2023-06-22T00:59:55;9.97;;;9.00;;
17852;SDS011;9052;53.494;14.376;2023-06-22T01:02:22;26.13;;;10.87;;
17852;SDS011;9052;53.494;14.376;2023-06-22T01:04:49;15.70;;;9.90;;
17852;SDS011;9052;53.494;14.376;2023-06-22T01:07:18;14.47;;;10.27;;
17852;SDS011;9052;53.494;14.376;2023-06-22T01:09:51;17.40;;;9.80;;
17852;SDS011;9052;53.494;14.376;2023-06-22T01:12:23;12.77;;;9.60;;
17852;SDS011;9052;53.494;14.376;2023-06-22T01:14:53;7.90;;;7.20;;
17852;SDS011;9052;53.494;14.376;2023-06-22T01:17:23;12.80;;;9.70;;
17852;SDS011;9052;53.494;14.376;2023-06-22T01:19:52;21.30;;;9.03;;
17852;SDS011;9052;53.494;14.376;2023-06-22T01:22:21;8.63;;;7.83;;
17852;SDS011;9052;53.494;14.376;2023-06-22T01:24:54;11.23;;;9.43;;
17852;SDS011;9052;53.494;14.376;2023-06-22T01:27:30;15.37;;;10.77;;
17852;SDS011;9052;53.494;14.376;2023-06-22T01:30:01;15.40;;;9.33;;
17852;SDS011;9052;53.494;14.376;2023-06-22T01:32:30;12.00;;;10.03;;
17852;SDS011;9052;53.494;14.376;2023-06-22T01:34:58;11.70;;;10.47;;
17852;SDS011;9052;53.494;14.376;2023-06-22T01:37:27;13.13;;;9.57;;
17852;SDS011;9052;53.494;14.376;2023-06-22T01:39:54;11.20;;;9.27;;
17852;SDS011;9052;53.494;14.376;2023-06-22T01:42:21;11.27;;;9.23;;
17852;SDS011;9052;53.494;14.376;2023-06-22T01:44:49;9.93;;;9.03;;
17852;SDS011;9052;53.494;14.376;2023-06-22T01:47:17;11.53;;;9.93;;
17852;SDS011;9052;53.494;14.376;2023-06-22T01:49:44;20.97;;;9.30;;
17852;SDS011;9052;53.494;14.376;2023-06-22T01:52:11;14.27;;;11.13;;
17852;SDS011;9052;53.494;14.376;2023-06-22T01:54:39;10.87;;;9.00;;
17852;SDS011;9052;53.494;14.376;2023-06-22T01:57:06;12.13;;;9.57;;
17852;SDS011;9052;53.494;14.376;2023-06-22T01:59:34;9.77;;;8.87;;
17852;SDS011;9052;53.494;14.376;2023-06-22T02:02:06;10.10;;;9.07;;
17852;SDS011;9052;53.494;14.376;2023-06-22T02:04:36;11.53;;;9.30;;
17852;SDS011;9052;53.494;14.376;2023-06-22T02:07:08;12.27;;;8.30;;
17852;SDS011;9052;53.494;14.376;2023-06-22T02:09:43;12.27;;;9.70;;
17852;SDS011;9052;53.494;14.376;2023-06-22T02:12:11;13.17;;;11.13;;
17852;SDS011;9052;53.494;14.376;2023-06-22T02:14:39;13.20;;;11.07;;
17852;SDS011;9052;53.494;14.376;2023-06-22T02:17:07;12.97;;;10.90;;
17852;SDS011;9052;53.494;14.376;2023-06-22T02:19:37;18.30;;;11.67;;
17852;SDS011;9052;53.494;14.376;2023-06-22T02:22:04;15.23;;;9.90;;
17852;SDS011;9052;53.494;14.376;2023-06-22T02:24:31;12.00;;;10.83;;
17852;SDS011;9052;53.494;14.376;2023-06-22T02:26:58;16.53;;;11.00;;
17852;SDS011;9052;53.494;14.376;2023-06-22T02:29:25;13.00;;;11.27;;
17852;SDS011;9052;53.494;14.376;2023-06-22T02:31:52;12.83;;;10.30;;
17852;SDS011;9052;53.494;14.376;2023-06-22T02:34:20;17.33;;;11.03;;
17852;SDS011;9052;53.494;14.376;2023-06-22T02:36:48;13.40;;;11.77;;
17852;SDS011;9052;53.494;14.376;2023-06-22T02:39:18;16.90;;;12.60;;
17852;SDS011;9052;53.494;14.376;2023-06-22T02:41:47;14.97;;;11.07;;
17852;SDS011;9052;53.494;14.376;2023-06-22T02:44:14;18.33;;;12.33;;
17852;SDS011;9052;53.494;14.376;2023-06-22T02:46:41;22.70;;;13.70;;
17852;SDS011;9052;53.494;14.376;2023-06-22T02:49:08;14.93;;;11.40;;
17852;SDS011;9052;53.494;14.376;2023-06-22T02:51:35;11.40;;;9.87;;
17852;SDS011;9052;53.494;14.376;2023-06-22T02:54:03;11.40;;;10.30;;
17852;SDS011;9052;53.494;14.376;2023-06-22T02:56:30;15.50;;;11.73;;
17852;SDS011;9052;53.494;14.376;2023-06-22T02:58:57;18.07;;;12.50;;
17852;SDS011;9052;53.494;14.376;2023-06-22T03:01:25;17.07;;;12.37;;
17852;SDS011;9052;53.494;14.376;2023-06-22T03:03:53;16.80;;;11.90;;
17852;SDS011;9052;53.494;14.376;2023-06-22T03:06:20;14.53;;;12.50;;
17852;SDS011;9052;53.494;14.376;2023-06-22T03:08:48;14.83;;;12.20;;
17852;SDS011;9052;53.494;14.376;2023-06-22T03:11:17;14.77;;;13.17;;
17852;SDS011;9052;53.494;14.376;2023-06-22T03:13:44;21.40;;;15.03;;
17852;SDS011;9052;53.494;14.376;2023-06-22T03:16:11;17.93;;;15.13;;
17852;SDS011;9052;53.494;14.376;2023-06-22T03:18:38;17.97;;;15.50;;
17852;SDS011;9052;53.494;14.376;2023-06-22T03:21:05;22.27;;;14.90;;
17852;SDS011;9052;53.494;14.376;2023-06-22T03:23:32;17.30;;;15.50;;
17852;SDS011;9052;53.494;14.376;2023-06-22T03:25:58;18.07;;;15.43;;
17852;SDS011;9052;53.494;14.376;2023-06-22T03:28:27;20.63;;;14.97;;
17852;SDS011;9052;53.494;14.376;2023-06-22T03:30:53;19.07;;;14.77;;
17852;SDS011;9052;53.494;14.376;2023-06-22T03:33:20;18.30;;;15.70;;
17852;SDS011;9052;53.494;14.376;2023-06-22T03:35:47;23.00;;;14.70;;
17852;SDS011;9052;53.494;14.376;2023-06-22T03:38:15;18.20;;;14.60;;
17852;SDS011;9052;53.494;14.376;2023-06-22T03:40:42;19.40;;;14.17;;
17852;SDS011;9052;53.494;14.376;2023-06-22T03:43:09;15.53;;;13.10;;
17852;SDS011;9052;53.494;14.376;2023-06-22T03:45:37;12.93;;;11.53;;
17852;SDS011;9052;53.494;14.376;2023-06-22T03:48:05;17.77;;;13.00;;
17852;SDS011;9052;53.494;14.376;2023-06-22T03:50:32;12.60;;;11.30;;
17852;SDS011;9052;53.494;14.376;2023-06-22T03:52:59;13.13;;;11.13;;
17852;SDS011;9052;53.494;14.376;2023-06-22T03:55:26;10.83;;;8.93;;
17852;SDS011;9052;53.494;14.376;2023-06-22T03:57:53;9.67;;;8.07;;
17852;SDS011;9052;53.494;14.376;2023-06-22T04:00:22;7.80;;;7.00;;
17852;SDS011;9052;53.494;14.376;2023-06-22T04:02:50;14.83;;;5.60;;
17852;SDS011;9052;53.494;14.376;2023-06-22T04:05:17;14.83;;;5.83;;
17852;SDS011;9052;53.494;14.376;2023-06-22T04:07:44;5.63;;;4.90;;
17852;SDS011;9052;53.494;14.376;2023-06-22T04:10:11;6.87;;;5.20;;
17852;SDS011;9052;53.494;14.376;2023-06-22T04:12:38;6.33;;;5.30;;
17852;SDS011;9052;53.494;14.376;2023-06-22T04:15:05;14.27;;;5.60;;
17852;SDS011;9052;53.494;14.376;2023-06-22T04:17:32;5.30;;;4.60;;
17852;SDS011;9052;53.494;14.376;2023-06-22T04:20:01;31.03;;;5.67;;
17852;SDS011;9052;53.494;14.376;2023-06-22T04:22:29;7.03;;;4.43;;
17852;SDS011;9052;53.494;14.376;2023-06-22T04:24:56;10.80;;;5.70;;
17852;SDS011;9052;53.494;14.376;2023-06-22T04:27:22;5.03;;;4.53;;
17852;SDS011;9052;53.494;14.376;2023-06-22T04:29:49;4.53;;;4.23;;
17852;SDS011;9052;53.494;14.376;2023-06-22T04:32:16;13.50;;;5.27;;
17852;SDS011;9052;53.494;14.376;2023-06-22T04:34:44;6.90;;;5.47;;
17852;SDS011;9052;53.494;14.376;2023-06-22T04:37:12;5.40;;;4.87;;
17852;SDS011;9052;53.494;14.376;2023-06-22T04:39:41;7.83;;;5.60;;
17852;SDS011;9052;53.494;14.376;2023-06-22T04:42:08;9.63;;;4.80;;
17852;SDS011;9052;53.494;14.376;2023-06-22T04:44:35;7.37;;;5.23;;
17852;SDS011;9052;53.494;14.376;2023-06-22T04:47:02;8.03;;;4.77;;
17852;SDS011;9052;53.494;14.376;2023-06-22T04:49:31;7.30;;;5.80;;
17852;SDS011;9052;53.494;14.376;2023-06-22T04:51:59;5.93;;;5.23;;
17852;SDS011;9052;53.494;14.376;2023-06-22T04:54:28;8.97;;;5.20;;
17852;SDS011;9052;53.494;14.376;2023-06-22T04:56:58;6.50;;;5.60;;
17852;SDS011;9052;53.494;14.376;2023-06-22T04:59:25;7.10;;;5.80;;
17852;SDS011;9052;53.494;14.376;2023-06-22T05:01:55;5.10;;;4.70;;
17852;SDS011;9052;53.494;14.376;2023-06-22T05:04:22;10.20;;;5.07;;
17852;SDS011;9052;53.494;14.376;2023-06-22T05:06:49;10.87;;;5.53;;
17852;SDS011;9052;53.494;14.376;2023-06-22T05:09:16;7.80;;;5.57;;
17852;SDS011;9052;53.494;14.376;2023-06-22T05:11:44;10.73;;;6.70;;
17852;SDS011;9052;53.494;14.376;2023-06-22T05:14:11;12.13;;;5.77;;
17852;SDS011;9052;53.494;14.376;2023-06-22T05:16:40;8.47;;;5.70;;
17852;SDS011;9052;53.494;14.376;2023-06-22T05:19:07;6.33;;;5.73;;
17852;SDS011;9052;53.494;14.376;2023-06-22T05:21:34;10.23;;;6.20;;
17852;SDS011;9052;53.494;14.376;2023-06-22T05:24:01;8.53;;;5.30;;
17852;SDS011;9052;53.494;14.376;2023-06-22T05:26:29;5.93;;;5.20;;
17852;SDS011;9052;53.494;14.376;2023-06-22T05:28:57;6.17;;;5.60;;
17852;SDS011;9052;53.494;14.376;2023-06-22T05:31:25;6.40;;;4.77;;
17852;SDS011;9052;53.494;14.376;2023-06-22T05:33:53;10.80;;;5.40;;
17852;SDS011;9052;53.494;14.376;2023-06-22T05:36:21;5.60;;;5.10;;
17852;SDS011;9052;53.494;14.376;2023-06-22T05:38:50;5.73;;;4.83;;
17852;SDS011;9052;53.494;14.376;2023-06-22T05:41:17;8.23;;;4.47;;
17852;SDS011;9052;53.494;14.376;2023-06-22T05:43:44;7.37;;;4.97;;
17852;SDS011;9052;53.494;14.376;2023-06-22T05:46:12;6.77;;;4.50;;
17852;SDS011;9052;53.494;14.376;2023-06-22T05:48:39;7.20;;;5.00;;
17852;SDS011;9052;53.494;14.376;2023-06-22T05:51:05;16.20;;;4.30;;
17852;SDS011;9052;53.494;14.376;2023-06-22T05:53:32;5.63;;;5.07;;
17852;SDS011;9052;53.494;14.376;2023-06-22T05:55:59;5.73;;;4.13;;
17852;SDS011;9052;53.494;14.376;2023-06-22T05:58:26;6.33;;;4.20;;
17852;SDS011;9052;53.494;14.376;2023-06-22T06:00:53;4.57;;;4.17;;
17852;SDS011;9052;53.494;14.376;2023-06-22T06:03:21;3.53;;;3.30;;
17852;SDS011;9052;53.494;14.376;2023-06-22T06:05:48;12.90;;;3.60;;
17852;SDS011;9052;53.494;14.376;2023-06-22T06:08:15;6.10;;;3.80;;
17852;SDS011;9052;53.494;14.376;2023-06-22T06:10:42;5.57;;;3.47;;
17852;SDS011;9052;53.494;14.376;2023-06-22T06:13:09;4.13;;;3.83;;
17852;SDS011;9052;53.494;14.376;2023-06-22T06:15:36;4.53;;;3.57;;
17852;SDS011;9052;53.494;14.376;2023-06-22T06:18:03;4.13;;;3.73;;
17852;SDS011;9052;53.494;14.376;2023-06-22T06:20:32;7.50;;;3.97;;
17852;SDS011;9052;53.494;14.376;2023-06-22T06:22:59;3.30;;;3.10;;
17852;SDS011;9052;53.494;14.376;2023-06-22T06:25:26;7.13;;;4.47;;
17852;SDS011;9052;53.494;14.376;2023-06-22T06:27:53;5.40;;;3.30;;
17852;SDS011;9052;53.494;14.376;2023-06-22T06:30:21;5.30;;;3.90;;
17852;SDS011;9052;53.494;14.376;2023-06-22T06:32:48;8.20;;;3.53;;
17852;SDS011;9052;53.494;14.376;2023-06-22T06:35:15;6.17;;;3.80;;
17852;SDS011;9052;53.494;14.376;2023-06-22T06:37:46;4.00;;;3.47;;
17852;SDS011;9052;53.494;14.376;2023-06-22T06:40:15;5.53;;;3.77;;
17852;SDS011;9052;53.494;14.376;2023-06-22T06:42:42;8.00;;;3.73;;
17852;SDS011;9052;53.494;14.376;2023-06-22T06:45:10;4.43;;;3.53;;
17852;SDS011;9052;53.494;14.376;2023-06-22T06:47:38;3.83;;;3.27;;
17852;SDS011;9052;53.494;14.376;2023-06-22T06:50:06;3.47;;;3.17;;
17852;SDS011;9052;53.494;14.376;2023-06-22T06:52:33;5.20;;;3.73;;
17852;SDS011;9052;53.494;14.376;2023-06-22T06:55:02;4.30;;;3.23;;
17852;SDS011;9052;53.494;14.376;2023-06-22T06:57:33;2.83;;;2.63;;
17852;SDS011;9052;53.494;14.376;2023-06-22T07:00:00;4.83;;;3.13;;
17852;SDS011;9052;53.494;14.376;2023-06-22T07:02:27;3.13;;;2.60;;
17852;SDS011;9052;53.494;14.376;2023-06-22T07:04:54;11.20;;;2.93;;
17852;SDS011;9052;53.494;14.376;2023-06-22T07:07:21;3.20;;;2.80;;
17852;SDS011;9052;53.494;14.376;2023-06-22T07:09:48;3.77;;;2.87;;
17852;SDS011;9052;53.494;14.376;2023-06-22T07:12:16;6.30;;;2.90;;
17852;SDS011;9052;53.494;14.376;2023-06-22T07:14:43;2.10;;;1.90;;
17852;SDS011;9052;53.494;14.376;2023-06-22T07:17:10;3.07;;;2.63;;
17852;SDS011;9052;53.494;14.376;2023-06-22T07:19:37;3.03;;;2.50;;
17852;SDS011;9052;53.494;14.376;2023-06-22T07:22:04;2.80;;;2.17;;
17852;SDS011;9052;53.494;14.376;2023-06-22T07:24:31;2.70;;;2.50;;
17852;SDS011;9052;53.494;14.376;2023-06-22T07:26:58;3.20;;;2.73;;
17852;SDS011;9052;53.494;14.376;2023-06-22T07:29:27;3.80;;;3.13;;
17852;SDS011;9052;53.494;14.376;2023-06-22T07:31:53;4.60;;;3.00;;
17852;SDS011;9052;53.494;14.376;2023-06-22T07:34:21;3.70;;;2.77;;
17852;SDS011;9052;53.494;14.376;2023-06-22T07:36:48;2.77;;;2.57;;
17852;SDS011;9052;53.494;14.376;2023-06-22T07:39:15;4.00;;;3.33;;
17852;SDS011;9052;53.494;14.376;2023-06-22T07:41:42;2.93;;;2.60;;
17852;SDS011;9052;53.494;14.376;2023-06-22T07:44:09;5.43;;;2.30;;
17852;SDS011;9052;53.494;14.376;2023-06-22T07:46:37;2.37;;;2.13;;
17852;SDS011;9052;53.494;14.376;2023-06-22T07:49:04;4.17;;;2.43;;
17852;SDS011;9052;53.494;14.376;2023-06-22T07:51:33;4.83;;;2.60;;
17852;SDS011;9052;53.494;14.376;2023-06-22T07:54:00;3.60;;;2.13;;
17852;SDS011;9052;53.494;14.376;2023-06-22T07:56:26;3.63;;;2.60;;
17852;SDS011;9052;53.494;14.376;2023-06-22T07:58:53;3.20;;;1.97;;
17852;SDS011;9052;53.494;14.376;2023-06-22T08:01:23;3.53;;;2.70;;
17852;SDS011;9052;53.494;14.376;2023-06-22T08:03:51;3.07;;;2.10;;
17852;SDS011;9052;53.494;14.376;2023-06-22T08:06:18;4.77;;;2.87;;
17852;SDS011;9052;53.494;14.376;2023-06-22T08:08:45;4.40;;;2.73;;
17852;SDS011;9052;53.494;14.376;2023-06-22T08:11:14;6.20;;;2.67;;
17852;SDS011;9052;53.494;14.376;2023-06-22T08:13:41;2.40;;;2.20;;
17852;SDS011;9052;53.494;14.376;2023-06-22T08:16:08;4.80;;;2.20;;
17852;SDS011;9052;53.494;14.376;2023-06-22T08:18:35;2.70;;;2.17;;
17852;SDS011;9052;53.494;14.376;2023-06-22T08:21:04;3.80;;;2.47;;
17852;SDS011;9052;53.494;14.376;2023-06-22T08:23:31;7.37;;;2.80;;
17852;SDS011;9052;53.494;14.376;2023-06-22T08:25:58;9.90;;;2.57;;
17852;SDS011;9052;53.494;14.376;2023-06-22T08:28:25;3.00;;;2.37;;
17852;SDS011;9052;53.494;14.376;2023-06-22T08:30:51;2.33;;;2.13;;
17852;SDS011;9052;53.494;14.376;2023-06-22T08:33:20;3.97;;;2.47;;
17852;SDS011;9052;53.494;14.376;2023-06-22T08:35:53;3.00;;;2.57;;
17852;SDS011;9052;53.494;14.376;2023-06-22T08:38:22;5.50;;;2.13;;
17852;SDS011;9052;53.494;14.376;2023-06-22T08:40:49;3.00;;;2.30;;
17852;SDS011;9052;53.494;14.376;2023-06-22T08:43:15;3.10;;;2.47;;
17852;SDS011;9052;53.494;14.376;2023-06-22T08:45:42;2.50;;;2.13;;
17852;SDS011;9052;53.494;14.376;2023-06-22T08:48:09;2.97;;;2.33;;
17852;SDS011;9052;53.494;14.376;2023-06-22T08:50:36;2.57;;;2.37;;
17852;SDS011;9052;53.494;14.376;2023-06-22T08:53:05;2.50;;;2.30;;
17852;SDS011;9052;53.494;14.376;2023-06-22T08:55:33;6.20;;;2.50;;
17852;SDS011;9052;53.494;14.376;2023-06-22T08:58:00;3.53;;;3.17;;
17852;SDS011;9052;53.494;14.376;2023-06-22T09:00:28;3.73;;;2.27;;
17852;SDS011;9052;53.494;14.376;2023-06-22T09:02:58;3.77;;;2.83;;
17852;SDS011;9052;53.494;14.376;2023-06-22T09:05:25;7.30;;;2.17;;
17852;SDS011;9052;53.494;14.376;2023-06-22T09:07:52;2.60;;;2.10;;
17852;SDS011;9052;53.494;14.376;2023-06-22T09:10:20;3.30;;;2.43;;
17852;SDS011;9052;53.494;14.376;2023-06-22T09:12:49;6.27;;;2.60;;
17852;SDS011;9052;53.494;14.376;2023-06-22T09:15:16;4.10;;;2.53;;
17852;SDS011;9052;53.494;14.376;2023-06-22T09:17:43;2.60;;;2.37;;
17852;SDS011;9052;53.494;14.376;2023-06-22T09:20:11;3.07;;;2.30;;
17852;SDS011;9052;53.494;14.376;2023-06-22T09:22:38;4.57;;;2.43;;
17852;SDS011;9052;53.494;14.376;2023-06-22T09:25:05;4.23;;;2.33;;
17852;SDS011;9052;53.494;14.376;2023-06-22T09:27:32;2.83;;;2.03;;
17852;SDS011;9052;53.494;14.376;2023-06-22T09:30:01;2.73;;;2.53;;
17852;SDS011;9052;53.494;14.376;2023-06-22T09:32:28;3.27;;;2.40;;
17852;SDS011;9052;53.494;14.376;2023-06-22T09:34:55;3.20;;;2.30;;
17852;SDS011;9052;53.494;14.376;2023-06-22T09:37:22;2.57;;;2.37;;
17852;SDS011;9052;53.494;14.376;2023-06-22T09:39:49;3.50;;;3.00;;
17852;SDS011;9052;53.494;14.376;2023-06-22T09:42:16;3.50;;;2.30;;
17852;SDS011;9052;53.494;14.376;2023-06-22T09:44:43;3.17;;;1.90;;
17852;SDS011;9052;53.494;14.376;2023-06-22T09:47:11;3.00;;;2.03;;
17852;SDS011;9052;53.494;14.376;2023-06-22T09:49:38;2.90;;;2.67;;
17852;SDS011;9052;53.494;14.376;2023-06-22T09:52:05;2.83;;;2.50;;
17852;SDS011;9052;53.494;14.376;2023-06-22T09:54:32;2.60;;;2.10;;
17852;SDS011;9052;53.494;14.376;2023-06-22T09:56:59;2.20;;;2.00;;
17852;SDS011;9052;53.494;14.376;2023-06-22T09:59:26;2.40;;;2.10;;
17852;SDS011;9052;53.494;14.376;2023-06-22T10:01:53;2.90;;;2.60;;
17852;SDS011;9052;53.494;14.376;2023-06-22T10:04:21;5.00;;;2.20;;
17852;SDS011;9052;53.494;14.376;2023-06-22T10:06:49;4.10;;;2.47;;
17852;SDS011;9052;53.494;14.376;2023-06-22T10:09:16;6.33;;;2.47;;
17852;SDS011;9052;53.494;14.376;2023-06-22T10:11:43;3.37;;;3.07;;
17852;SDS011;9052;53.494;14.376;2023-06-22T10:14:10;2.90;;;2.70;;
17852;SDS011;9052;53.494;14.376;2023-06-22T10:16:37;4.33;;;2.93;;
17852;SDS011;9052;53.494;14.376;2023-06-22T10:19:06;4.03;;;2.90;;
17852;SDS011;9052;53.494;14.376;2023-06-22T10:21:34;2.57;;;2.37;;
17852;SDS011;9052;53.494;14.376;2023-06-22T10:24:01;5.80;;;3.20;;
17852;SDS011;9052;53.494;14.376;2023-06-22T10:26:31;5.40;;;3.23;;
17852;SDS011;9052;53.494;14.376;2023-06-22T10:28:58;10.93;;;2.70;;
17852;SDS011;9052;53.494;14.376;2023-06-22T10:31:25;3.70;;;2.97;;
17852;SDS011;9052;53.494;14.376;2023-06-22T10:33:52;4.13;;;2.93;;
17852;SDS011;9052;53.494;14.376;2023-06-22T10:36:20;3.73;;;2.93;;
17852;SDS011;9052;53.494;14.376;2023-06-22T10:38:48;3.33;;;2.90;;
17852;SDS011;9052;53.494;14.376;2023-06-22T10:41:15;3.90;;;3.00;;
17852;SDS011;9052;53.494;14.376;2023-06-22T10:43:42;4.43;;;2.60;;
17852;SDS011;9052;53.494;14.376;2023-06-22T10:46:09;3.13;;;2.93;;
17852;SDS011;9052;53.494;14.376;2023-06-22T10:48:36;3.60;;;2.80;;
17852;SDS011;9052;53.494;14.376;2023-06-22T10:51:02;3.63;;;2.90;;
17852;SDS011;9052;53.494;14.376;2023-06-22T10:53:29;4.07;;;3.77;;
17852;SDS011;9052;53.494;14.376;2023-06-22T10:55:58;3.83;;;3.40;;
17852;SDS011;9052;53.494;14.376;2023-06-22T10:58:25;3.20;;;2.90;;
17852;SDS011;9052;53.494;14.376;2023-06-22T11:00:52;6.10;;;2.80;;
17852;SDS011;9052;53.494;14.376;2023-06-22T11:03:18;2.23;;;2.10;;
17852;SDS011;9052;53.494;14.376;2023-06-22T11:05:45;3.30;;;3.00;;
17852;SDS011;9052;53.494;14.376;2023-06-22T11:08:13;3.40;;;3.10;;
17852;SDS011;9052;53.494;14.376;2023-06-22T11:10:39;3.97;;;3.63;;
17852;SDS011;9052;53.494;14.376;2023-06-22T11:13:08;5.77;;;3.40;;
17852;SDS011;9052;53.494;14.376;2023-06-22T11:15:35;3.87;;;3.37;;
17852;SDS011;9052;53.494;14.376;2023-06-22T11:18:02;3.27;;;2.97;;
17852;SDS011;9052;53.494;14.376;2023-06-22T11:20:30;8.23;;;3.60;;
17852;SDS011;9052;53.494;14.376;2023-06-22T11:22:59;6.87;;;3.40;;
17852;SDS011;9052;53.494;14.376;2023-06-22T11:25:26;4.70;;;2.93;;
17852;SDS011;9052;53.494;14.376;2023-06-22T11:27:53;3.03;;;2.83;;
17852;SDS011;9052;53.494;14.376;2023-06-22T11:30:22;3.53;;;3.23;;
17852;SDS011;9052;53.494;14.376;2023-06-22T11:32:49;3.63;;;3.00;;
17852;SDS011;9052;53.494;14.376;2023-06-22T11:35:15;4.17;;;3.77;;
17852;SDS011;9052;53.494;14.376;2023-06-22T11:37:42;4.70;;;2.97;;
17852;SDS011;9052;53.494;14.376;2023-06-22T11:40:10;5.53;;;3.63;;
17852;SDS011;9052;53.494;14.376;2023-06-22T11:42:37;2.90;;;2.70;;
17852;SDS011;9052;53.494;14.376;2023-06-22T11:45:04;3.97;;;3.10;;
17852;SDS011;9052;53.494;14.376;2023-06-22T11:47:33;6.73;;;3.57;;
17852;SDS011;9052;53.494;14.376;2023-06-22T11:50:00;3.87;;;2.70;;
17852;SDS011;9052;53.494;14.376;2023-06-22T11:52:27;5.93;;;3.67;;
17852;SDS011;9052;53.494;14.376;2023-06-22T11:54:54;5.40;;;3.00;;
17852;SDS011;9052;53.494;14.376;2023-06-22T11:57:20;3.87;;;3.57;;
17852;SDS011;9052;53.494;14.376;2023-06-22T11:59:47;3.27;;;3.07;;
17852;SDS011;9052;53.494;14.376;2023-06-22T12:02:14;3.50;;;3.20;;
17852;SDS011;9052;53.494;14.376;2023-06-22T12:04:43;3.20;;;3.00;;
17852;SDS011;9052;53.494;14.376;2023-06-22T12:07:09;4.90;;;3.70;;
17852;SDS011;9052;53.494;14.376;2023-06-22T12:09:36;3.40;;;3.10;;
17852;SDS011;9052;53.494;14.376;2023-06-22T12:12:03;2.87;;;2.60;;
17852;SDS011;9052;53.494;14.376;2023-06-22T12:14:30;3.40;;;3.20;;
17852;SDS011;9052;53.494;14.376;2023-06-22T12:16:57;3.43;;;2.70;;
17852;SDS011;9052;53.494;14.376;2023-06-22T12:19:24;3.17;;;2.87;;
17852;SDS011;9052;53.494;14.376;2023-06-22T12:21:52;5.67;;;3.13;;
17852;SDS011;9052;53.494;14.376;2023-06-22T12:24:19;3.90;;;3.00;;
17852;SDS011;9052;53.494;14.376;2023-06-22T12:26:46;4.37;;;2.97;;
17852;SDS011;9052;53.494;14.376;2023-06-22T12:29:13;6.30;;;4.60;;
17852;SDS011;9052;53.494;14.376;2023-06-22T12:31:40;8.03;;;4.97;;
17852;SDS011;9052;53.494;14.376;2023-06-22T12:34:07;11.13;;;5.10;;
17852;SDS011;9052;53.494;14.376;2023-06-22T12:36:34;8.70;;;5.73;;
17852;SDS011;9052;53.494;14.376;2023-06-22T12:39:02;6.00;;;4.57;;
17852;SDS011;9052;53.494;14.376;2023-06-22T12:41:29;5.17;;;4.67;;
17852;SDS011;9052;53.494;14.376;2023-06-22T12:43:56;5.23;;;4.03;;
17852;SDS011;9052;53.494;14.376;2023-06-22T12:46:22;11.53;;;4.97;;
17852;SDS011;9052;53.494;14.376;2023-06-22T12:48:49;5.73;;;4.57;;
17852;SDS011;9052;53.494;14.376;2023-06-22T12:51:20;4.30;;;3.90;;
17852;SDS011;9052;53.494;14.376;2023-06-22T12:53:47;5.60;;;4.33;;
17852;SDS011;9052;53.494;14.376;2023-06-22T12:56:15;4.60;;;4.20;;
17852;SDS011;9052;53.494;14.376;2023-06-22T12:58:42;5.20;;;4.20;;
17852;SDS011;9052;53.494;14.376;2023-06-22T13:01:09;6.97;;;4.40;;
17852;SDS011;9052;53.494;14.376;2023-06-22T13:03:35;10.20;;;4.00;;
17852;SDS011;9052;53.494;14.376;2023-06-22T13:06:02;3.93;;;3.63;;
17852;SDS011;9052;53.494;14.376;2023-06-22T13:08:29;5.90;;;4.33;;
17852;SDS011;9052;53.494;14.376;2023-06-22T13:10:56;5.10;;;3.70;;
17852;SDS011;9052;53.494;14.376;2023-06-22T13:13:25;3.97;;;3.40;;
17852;SDS011;9052;53.494;14.376;2023-06-22T13:15:53;4.40;;;4.00;;
17852;SDS011;9052;53.494;14.376;2023-06-22T13:18:20;5.47;;;3.47;;
17852;SDS011;9052;53.494;14.376;2023-06-22T13:20:46;3.63;;;3.33;;
17852;SDS011;9052;53.494;14.376;2023-06-22T13:23:13;3.80;;;3.10;;
17852;SDS011;9052;53.494;14.376;2023-06-22T13:25:40;3.97;;;3.60;;
17852;SDS011;9052;53.494;14.376;2023-06-22T13:28:07;4.07;;;3.67;;
17852;SDS011;9052;53.494;14.376;2023-06-22T13:30:37;5.10;;;3.47;;
17852;SDS011;9052;53.494;14.376;2023-06-22T13:33:04;3.33;;;3.13;;
17852;SDS011;9052;53.494;14.376;2023-06-22T13:35:30;8.60;;;3.10;;
17852;SDS011;9052;53.494;14.376;2023-06-22T13:37:57;5.00;;;3.57;;
17852;SDS011;9052;53.494;14.376;2023-06-22T13:40:24;6.83;;;4.10;;
17852;SDS011;9052;53.494;14.376;2023-06-22T13:42:51;3.63;;;3.13;;
17852;SDS011;9052;53.494;14.376;2023-06-22T13:45:18;4.60;;;2.97;;
17852;SDS011;9052;53.494;14.376;2023-06-22T13:47:46;4.80;;;3.30;;
17852;SDS011;9052;53.494;14.376;2023-06-22T13:50:14;3.57;;;3.27;;
17852;SDS011;9052;53.494;14.376;2023-06-22T13:52:40;3.93;;;3.60;;
17852;SDS011;9052;53.494;14.376;2023-06-22T13:55:08;5.20;;;2.63;;
17852;SDS011;9052;53.494;14.376;2023-06-22T13:57:35;7.47;;;4.50;;
17852;SDS011;9052;53.494;14.376;2023-06-22T14:00:03;5.70;;;3.90;;
17852;SDS011;9052;53.494;14.376;2023-06-22T14:02:31;11.40;;;4.57;;
17852;SDS011;9052;53.494;14.376;2023-06-22T14:04:59;5.27;;;3.83;;
17852;SDS011;9052;53.494;14.376;2023-06-22T14:07:27;16.97;;;5.00;;
17852;SDS011;9052;53.494;14.376;2023-06-22T14:09:54;5.03;;;4.27;;
17852;SDS011;9052;53.494;14.376;2023-06-22T14:12:21;4.57;;;4.03;;
17852;SDS011;9052;53.494;14.376;2023-06-22T14:14:47;7.67;;;4.37;;
17852;SDS011;9052;53.494;14.376;2023-06-22T14:17:14;5.33;;;4.60;;
17852;SDS011;9052;53.494;14.376;2023-06-22T14:19:41;4.27;;;3.77;;
17852;SDS011;9052;53.494;14.376;2023-06-22T14:22:10;12.93;;;4.80;;
17852;SDS011;9052;53.494;14.376;2023-06-22T14:24:37;9.07;;;4.67;;
17852;SDS011;9052;53.494;14.376;2023-06-22T14:27:04;10.17;;;4.40;;
17852;SDS011;9052;53.494;14.376;2023-06-22T14:29:33;11.70;;;4.63;;
17852;SDS011;9052;53.494;14.376;2023-06-22T14:32:00;5.73;;;4.00;;
17852;SDS011;9052;53.494;14.376;2023-06-22T14:34:27;5.33;;;3.03;;
17852;SDS011;9052;53.494;14.376;2023-06-22T14:36:54;5.23;;;3.67;;
17852;SDS011;9052;53.494;14.376;2023-06-22T14:39:22;9.40;;;4.03;;
17852;SDS011;9052;53.494;14.376;2023-06-22T14:41:49;8.60;;;4.30;;